createdAt,value
2022-08-21T06:44:53.409Z,18.64
2022-08-21T06:47:26.347Z,18.79
2022-08-21T06:50:00.029Z,18.80
2022-08-21T06:52:32.844Z,18.82
2022-08-21T06:55:07.051Z,18.83
2022-08-21T06:57:41.326Z,18.87
2022-08-21T07:00:25.621Z,18.90
2022-08-21T07:02:58.387Z,18.93
2022-08-21T07:05:32.684Z,18.93
2022-08-21T07:08:05.276Z,18.99
2022-08-21T07:10:37.809Z,19.06
2022-08-21T07:13:10.246Z,19.12
2022-08-21T07:15:43.174Z,19.13
2022-08-21T07:18:16.018Z,19.13
2022-08-21T07:20:49.110Z,19.13
2022-08-21T07:23:25.681Z,19.15
2022-08-21T07:25:58.295Z,19.19
2022-08-21T07:28:31.641Z,19.22
2022-08-21T07:31:05.801Z,19.23
2022-08-21T07:33:39.267Z,19.27
2022-08-21T07:36:12.457Z,19.29
2022-08-21T07:38:46.098Z,19.34
2022-08-21T07:41:21.298Z,19.39
2022-08-21T07:44:07.886Z,19.42
2022-08-21T07:46:40.811Z,19.45
2022-08-21T07:49:14.285Z,19.47
2022-08-21T07:51:46.781Z,19.48
2022-08-21T07:54:19.669Z,19.48
2022-08-21T07:57:07.269Z,19.46
2022-08-21T07:59:39.553Z,19.45
2022-08-21T08:02:11.693Z,19.40
2022-08-21T08:04:50.983Z,19.29
2022-08-21T08:07:24.553Z,19.19
2022-08-21T08:09:57.065Z,19.12
2022-08-21T08:12:30.688Z,19.08
2022-08-21T08:15:12.322Z,19.02
2022-08-21T08:17:45.680Z,18.96
2022-08-21T08:20:19.250Z,18.87
2022-08-21T08:22:52.284Z,18.80
2022-08-21T08:25:26.272Z,18.75
2022-08-21T08:28:00.180Z,18.68
2022-08-21T08:30:33.186Z,18.61
2022-08-21T08:33:05.636Z,18.57
2022-08-21T08:35:39.251Z,18.56
2022-08-21T08:38:11.887Z,18.53
2022-08-21T08:40:50.081Z,18.51
2022-08-21T08:43:22.949Z,18.50
2022-08-21T08:45:59.319Z,18.48
2022-08-21T08:48:53.116Z,18.47
2022-08-21T08:51:32.443Z,18.44
2022-08-21T08:54:09.835Z,18.44
2022-08-21T08:56:42.860Z,18.45
2022-08-21T08:59:21.221Z,18.41
2022-08-21T09:01:54.001Z,18.39
2022-08-21T09:04:29.767Z,18.38
2022-08-21T09:07:14.989Z,18.38
2022-08-21T09:10:01.551Z,18.38
2022-08-21T09:12:47.198Z,18.36
2022-08-21T09:15:26.389Z,18.35
2022-08-21T09:18:21.781Z,18.33
2022-08-21T09:21:11.149Z,18.32
2022-08-21T09:23:54.995Z,18.24
2022-08-21T09:26:33.696Z,18.15
2022-08-21T09:29:08.471Z,18.08
2022-08-21T09:31:41.628Z,18.02
2022-08-21T09:34:15.187Z,17.94
2022-08-21T09:36:51.501Z,17.86
2022-08-21T09:39:31.044Z,17.79
2022-08-21T09:42:05.602Z,17.78
2022-08-21T09:44:44.251Z,17.79
2022-08-21T09:47:26.248Z,17.80
2022-08-21T09:50:09.627Z,17.76
2022-08-21T09:52:47.978Z,17.71
2022-08-21T09:55:47.740Z,17.64
2022-08-21T09:58:22.190Z,17.60
2022-08-21T10:01:03.858Z,17.55
2022-08-21T10:03:34.796Z,17.51
2022-08-21T10:06:10.436Z,17.44
2022-08-21T10:08:43.502Z,17.43
2022-08-21T10:11:18.576Z,17.42
2022-08-21T10:14:01.898Z,17.46
2022-08-21T10:16:45.843Z,17.49
2022-08-21T10:19:28.618Z,17.51
2022-08-21T10:22:20.585Z,17.49
2022-08-21T10:25:00.282Z,17.48
2022-08-21T10:27:43.052Z,17.45
2022-08-21T10:30:21.828Z,17.41
2022-08-21T10:33:15.957Z,17.43
2022-08-21T10:36:00.424Z,17.40
2022-08-21T10:39:12.056Z,17.37
2022-08-21T10:42:14.907Z,17.35
2022-08-21T10:44:54.470Z,17.41
2022-08-21T10:47:36.136Z,17.45
2022-08-21T10:50:20.530Z,17.46
2022-08-21T10:53:07.349Z,17.46
2022-08-21T10:55:45.843Z,17.46
2022-08-21T10:58:26.047Z,17.43
2022-08-21T11:01:03.136Z,17.41
2022-08-21T11:03:43.201Z,17.39
2022-08-21T11:06:20.351Z,17.39
2022-08-21T11:08:58.085Z,17.41
2022-08-21T11:11:36.114Z,17.43
2022-08-21T11:14:18.348Z,17.47
2022-08-21T11:16:51.212Z,17.48
2022-08-21T11:19:30.107Z,17.47
2022-08-21T11:22:09.139Z,17.48
2022-08-21T11:24:46.551Z,17.49
2022-08-21T11:27:26.327Z,17.51
2022-08-21T11:30:02.092Z,17.54
2022-08-21T11:32:51.317Z,17.54
2022-08-21T11:35:40.973Z,17.54
2022-08-21T11:38:28.771Z,17.57
2022-08-21T11:41:24.729Z,17.62
2022-08-21T11:44:04.177Z,17.62
2022-08-21T11:46:45.060Z,17.63
2022-08-21T11:49:44.872Z,17.66
2022-08-21T11:52:22.470Z,17.73
2022-08-21T11:55:00.207Z,17.81
2022-08-21T11:57:37.349Z,17.83
2022-08-21T12:00:18.721Z,17.76
2022-08-21T12:02:54.739Z,17.67
2022-08-21T12:05:40.570Z,17.60
2022-08-21T12:08:17.122Z,17.50
2022-08-21T12:11:05.016Z,17.42
2022-08-21T12:13:42.263Z,17.32
2022-08-21T12:16:18.393Z,17.29
2022-08-21T12:18:50.534Z,17.28
2022-08-21T12:21:26.835Z,17.23
2022-08-21T12:24:20.307Z,17.17
2022-08-21T12:26:57.798Z,17.10
2022-08-21T12:29:33.294Z,17.05
2022-08-21T12:32:24.878Z,17.03
2022-08-21T12:35:03.690Z,17.02
2022-08-21T12:37:42.946Z,17.01
2022-08-21T12:40:26.031Z,16.98
2022-08-21T12:43:01.384Z,16.97
2022-08-21T12:45:39.001Z,16.96
2022-08-21T12:48:16.502Z,16.99
2022-08-21T12:50:54.214Z,17.02
2022-08-21T12:53:32.616Z,17.02
2022-08-21T12:56:11.436Z,17.01
2022-08-21T12:58:49.375Z,17.00
2022-08-21T13:01:26.519Z,16.97
2022-08-21T13:04:04.124Z,16.96
2022-08-21T13:06:45.532Z,16.90
2022-08-21T13:09:26.434Z,16.85
2022-08-21T13:11:59.759Z,16.85
2022-08-21T13:14:45.079Z,16.84
2022-08-21T13:17:23.411Z,16.86
2022-08-21T13:20:01.045Z,16.88
2022-08-21T13:22:36.477Z,16.89
2022-08-21T13:25:14.796Z,16.88
2022-08-21T13:27:59.669Z,16.88
2022-08-21T13:30:32.936Z,16.90
2022-08-21T13:33:13.288Z,16.90
2022-08-21T13:35:54.114Z,16.91
2022-08-21T13:38:32.240Z,16.94
2022-08-21T13:41:08.573Z,16.97
2022-08-21T13:43:46.474Z,17.00
2022-08-21T13:46:20.279Z,17.02
2022-08-21T13:48:52.780Z,16.99
2022-08-21T13:51:25.948Z,16.97
2022-08-21T13:53:58.123Z,16.95
2022-08-21T13:56:32.845Z,16.94
2022-08-21T13:59:05.898Z,16.93
2022-08-21T14:01:41.986Z,16.91
2022-08-21T14:04:24.713Z,16.92
2022-08-21T14:06:57.077Z,16.92
2022-08-21T14:09:33.961Z,16.92
2022-08-21T14:12:23.570Z,16.90
2022-08-21T14:14:58.073Z,16.91
2022-08-21T14:17:37.768Z,16.94
2022-08-21T14:20:14.829Z,16.94
2022-08-21T14:22:48.354Z,16.94
2022-08-21T14:25:40.791Z,16.96
2022-08-21T14:28:27.202Z,16.97
2022-08-21T14:31:12.607Z,16.96
2022-08-21T14:33:45.107Z,16.94
2022-08-21T14:36:17.456Z,16.93
2022-08-21T14:38:49.838Z,16.88
2022-08-21T14:41:25.088Z,16.86
2022-08-21T14:44:09.281Z,16.84
2022-08-21T14:46:51.719Z,16.81
2022-08-21T14:49:30.895Z,16.77
2022-08-21T14:52:03.336Z,16.73
2022-08-21T14:54:37.200Z,16.69
2022-08-21T14:57:13.045Z,16.67
2022-08-21T14:59:45.369Z,16.66
2022-08-21T15:02:17.673Z,16.66
2022-08-21T15:04:50.057Z,16.68
2022-08-21T15:07:22.188Z,16.66
2022-08-21T15:09:55.016Z,16.64
2022-08-21T15:12:27.848Z,16.62
2022-08-21T15:15:00.280Z,16.64
2022-08-21T15:17:32.580Z,16.67
2022-08-21T15:20:06.829Z,16.68
2022-08-21T15:22:39.079Z,16.72
2022-08-21T15:25:19.628Z,16.76
2022-08-21T15:27:52.232Z,16.76
2022-08-21T15:30:25.060Z,16.78
2022-08-21T15:32:57.149Z,16.77
2022-08-21T15:35:29.505Z,16.78
2022-08-21T15:38:01.988Z,16.80
2022-08-21T15:40:35.898Z,16.80
2022-08-21T15:43:09.648Z,16.80
2022-08-21T15:45:41.874Z,16.82
2022-08-21T15:48:14.478Z,16.81
2022-08-21T15:50:46.889Z,16.80
2022-08-21T15:53:19.835Z,16.83
2022-08-21T15:55:52.130Z,16.85
2022-08-21T15:58:25.532Z,16.86
2022-08-21T16:01:00.704Z,16.89
2022-08-21T16:03:33.874Z,16.89
2022-08-21T16:06:06.462Z,16.90
2022-08-21T16:08:39.036Z,16.92
2022-08-21T16:11:12.282Z,16.95
2022-08-21T16:13:47.560Z,16.95
2022-08-21T16:16:23.928Z,16.95
2022-08-21T16:18:57.061Z,16.93
2022-08-21T16:21:34.619Z,16.89
2022-08-21T16:24:07.371Z,16.85
2022-08-21T16:26:39.548Z,16.84
2022-08-21T16:29:12.411Z,16.80
2022-08-21T16:31:46.013Z,16.78
2022-08-21T16:34:21.405Z,16.79
2022-08-21T16:36:53.843Z,16.80
2022-08-21T16:39:26.363Z,16.79
2022-08-21T16:41:58.829Z,16.76
2022-08-21T16:44:31.254Z,16.72
2022-08-21T16:47:05.034Z,16.69
2022-08-21T16:49:38.257Z,16.66
2022-08-21T16:52:10.936Z,16.62
2022-08-21T16:54:45.151Z,16.58
2022-08-21T16:57:18.141Z,16.55
2022-08-21T16:59:52.560Z,16.53
2022-08-21T17:02:33.023Z,16.53
2022-08-21T17:05:13.828Z,16.52
2022-08-21T17:07:47.416Z,16.52
2022-08-21T17:10:20.383Z,16.50
2022-08-21T17:12:57.047Z,16.49
2022-08-21T17:15:33.536Z,16.48
2022-08-21T17:18:09.619Z,16.48
2022-08-21T17:20:42.263Z,16.47
2022-08-21T17:23:15.046Z,16.46
2022-08-21T17:25:50.083Z,16.44
2022-08-21T17:28:27.006Z,16.43
2022-08-21T17:31:02.555Z,16.41
2022-08-21T17:33:50.520Z,16.39
2022-08-21T17:36:25.099Z,16.38
2022-08-21T17:38:58.624Z,16.35
2022-08-21T17:41:31.773Z,16.36
2022-08-21T17:44:09.663Z,16.38
2022-08-21T17:46:42.957Z,16.40
2022-08-21T17:49:16.133Z,16.43
2022-08-21T17:51:48.384Z,16.47
2022-08-21T17:54:22.947Z,16.49
2022-08-21T17:56:58.692Z,16.49
2022-08-21T17:59:31.576Z,16.52
2022-08-21T18:02:17.428Z,16.53
2022-08-21T18:04:53.050Z,16.52
2022-08-21T18:07:32.705Z,16.52
2022-08-21T18:10:11.985Z,16.50
2022-08-21T18:12:47.058Z,16.49
2022-08-21T18:15:22.303Z,16.48
2022-08-21T18:18:00.078Z,16.47
2022-08-21T18:20:40.837Z,16.46
2022-08-21T18:23:16.327Z,16.46
2022-08-21T18:25:54.756Z,16.47
2022-08-21T18:28:32.320Z,16.49
2022-08-21T18:31:08.791Z,16.50
2022-08-21T18:33:57.879Z,16.51
2022-08-21T18:36:36.063Z,16.52
2022-08-21T18:39:32.721Z,16.53
2022-08-21T18:42:11.889Z,16.55
2022-08-21T18:44:48.657Z,16.56
2022-08-21T18:47:33.068Z,16.59
2022-08-21T18:50:05.913Z,16.59
2022-08-21T18:52:52.724Z,16.61
2022-08-21T18:55:34.512Z,16.61
2022-08-21T18:58:18.856Z,16.63
2022-08-21T19:00:57.712Z,16.64
2022-08-21T19:03:39.219Z,16.65
2022-08-21T19:06:17.961Z,16.65
2022-08-21T19:08:57.658Z,16.66
2022-08-21T19:11:34.683Z,16.64
2022-08-21T19:14:15.812Z,16.64
2022-08-21T19:16:54.310Z,16.64
2022-08-21T19:19:28.946Z,16.62
2022-08-21T19:22:10.944Z,16.60
2022-08-21T19:27:44.815Z,16.60
2022-08-21T19:30:26.477Z,16.61
2022-08-21T19:33:06.536Z,16.63
2022-08-21T19:35:44.810Z,16.65
2022-08-21T19:38:29.052Z,16.68
2022-08-21T19:41:04.012Z,16.71
2022-08-21T19:46:37.948Z,16.73
2022-08-21T19:49:21.330Z,16.75
2022-08-21T19:51:58.069Z,16.76
2022-08-21T19:54:36.608Z,16.76
2022-08-21T19:57:10.555Z,16.76
2022-08-21T19:59:47.121Z,16.75
2022-08-21T20:02:22.759Z,16.75
2022-08-21T20:04:55.871Z,16.74
2022-08-21T20:07:31.045Z,16.73
2022-08-21T20:10:06.885Z,16.73
2022-08-21T20:12:39.815Z,16.73
2022-08-21T20:15:13.420Z,16.73
2022-08-21T20:17:49.872Z,16.75
2022-08-21T20:20:22.746Z,16.76
2022-08-21T20:22:55.394Z,16.76
2022-08-21T20:25:31.046Z,16.75
2022-08-21T20:28:04.877Z,16.73
2022-08-21T20:30:38.447Z,16.71
2022-08-21T20:33:19.992Z,16.69
2022-08-21T20:35:53.967Z,16.67
2022-08-21T20:38:27.859Z,16.63
2022-08-21T20:41:01.367Z,16.58
2022-08-21T20:43:36.535Z,16.54
2022-08-21T20:46:15.680Z,16.51
2022-08-21T20:48:50.751Z,16.47
2022-08-21T20:51:29.202Z,16.44
2022-08-21T20:54:09.572Z,16.41
2022-08-21T20:56:49.516Z,16.40
2022-08-21T20:59:31.866Z,16.40
2022-08-21T21:02:12.258Z,16.38
2022-08-21T21:04:51.556Z,16.38
2022-08-21T21:07:33.206Z,16.38
2022-08-21T21:10:12.013Z,16.38
2022-08-21T21:12:53.496Z,16.37
2022-08-21T21:15:32.107Z,16.34
2022-08-21T21:18:14.033Z,16.31
2022-08-21T21:20:51.390Z,16.29
2022-08-21T21:23:28.332Z,16.23
2022-08-21T21:26:08.313Z,16.20
2022-08-21T21:28:53.855Z,16.18
2022-08-21T21:31:27.699Z,16.16
2022-08-21T21:34:01.146Z,16.13
2022-08-21T21:36:43.934Z,16.09
2022-08-21T21:39:35.994Z,16.04
2022-08-21T21:42:30.236Z,16.00
2022-08-21T21:45:15.491Z,15.99
2022-08-21T21:47:59.154Z,15.97
2022-08-21T21:50:51.706Z,15.93
2022-08-21T21:53:38.783Z,15.90
2022-08-21T21:56:23.786Z,15.88
2022-08-21T21:59:18.459Z,15.85
2022-08-21T22:01:58.227Z,15.85
2022-08-21T22:07:43.844Z,15.82
2022-08-21T22:13:26.662Z,15.77
2022-08-21T22:15:57.526Z,15.75
2022-08-21T22:18:34.090Z,15.72
2022-08-21T22:21:12.037Z,15.71
2022-08-21T22:23:48.364Z,15.69
2022-08-21T22:26:29.231Z,15.67
2022-08-21T22:29:05.816Z,15.65
2022-08-21T22:31:39.429Z,15.66
2022-08-21T22:34:17.826Z,15.66
2022-08-21T22:36:59.917Z,15.65
2022-08-21T22:39:38.786Z,15.63
2022-08-21T22:42:21.080Z,15.61
2022-08-21T22:44:56.489Z,15.59
2022-08-21T22:47:36.690Z,15.58
2022-08-21T22:50:18.955Z,15.58
2022-08-21T22:52:54.628Z,15.58
2022-08-21T22:55:30.685Z,15.58
2022-08-21T22:58:10.670Z,15.57
2022-08-21T23:00:49.604Z,15.58
2022-08-21T23:03:27.039Z,15.59
2022-08-21T23:06:12.696Z,15.58
2022-08-21T23:08:46.342Z,15.57
2022-08-21T23:11:28.330Z,15.55
2022-08-21T23:14:00.416Z,15.55
2022-08-21T23:16:47.553Z,15.56
2022-08-21T23:19:54.273Z,15.56
2022-08-21T23:22:37.459Z,15.55
2022-08-21T23:25:39.165Z,15.55
2022-08-21T23:28:24.399Z,15.56
2022-08-21T23:31:08.969Z,15.56
2022-08-21T23:34:15.887Z,15.56
2022-08-21T23:37:23.113Z,15.56
2022-08-21T23:40:12.507Z,15.58
2022-08-21T23:43:06.459Z,15.59
2022-08-21T23:45:56.151Z,15.59
2022-08-21T23:48:48.666Z,15.58
2022-08-21T23:51:33.711Z,15.58
2022-08-21T23:54:13.709Z,15.58
2022-08-21T23:57:01.621Z,15.57
2022-08-21T23:59:44.104Z,15.57
